13:06
Airports
History
Links
Donate
Help keep this website running!
PayPal
Bitcoin
Information on this page is community maintained and may be outdated or inaccurate and is intended for reference only or PC simulator navigating!
Always use approved charts for navigating.
LFOH
Le Havre-Octeville
Le Havre-Octeville (LFOH)
Le Havre, Haute-Normandie, France (76620)
(C)
Lat/Lng:49° 32' 2.68" N / 0° 5' 18.45" E
49.534079 / 0.088457
Elevation:311'ft 95mMSL
ID / ICAO:LFOH
Runways:1
Longest:(05-23) 2,301.4m 7,551ft Asphalt
Controlled:Yes
Distance To
Airport ID:
Airport Radio Frequencies
ATIS: 126.17
Tower: 135.2
Approach: 120.35
Nearby VORs <50NM
Nearby NDBs
METARUpdated 03-26-17 13:00 GMT
Altimeter: 30.12
Visibility: 6.2 statute miles
Wind: 8 knots (060°)
Temp: 15°c 59°f
Humidity: 51.2%

METAR: LFOH 261300Z AUTO 06008KT 020V080 CAVOK 15/05 Q1020 NOSIG

(Powered by phpweather)
Runway 05 / 23
Dimensions:2301.4 x 39.9m 7551' x 131'ft
Surface:Asphalt
Edge Lights:Medium intensity
Runway 05 [A]Runway 23 [B]
Heading:043°TH 223°TH
Lat:
Lng:
49° 31' 35.47"N
0° 4' 39.24"E
49° 32' 29.9"N
0° 5' 57.65"E
ALS:RAILSALS
Google Map
Nearby Airports
(C) Deauville Saint Gatien 12.0 NM
LFRG SSE 165°
4 Le Havre Saint Romain 12.2 NM
LFOY E 86°
(C) Yvetot 29.5 NM
7622 ENE 75°
(U) Yvetot 29.8 NM
LF11 ENE 75°
(C) Saint Valery Vittefleur 32.9 NM
LFOS NE 50°
(C) Caen Carpiquet 34.8 NM
LFRK (WX) SW 224°
4 Bernay Saint Martin 36.8 NM
LFPD SE 144°
VFR Chart
Flight Planning at SkyVector.com